sensor_id;sensor_type;location;lat;lon;timestamp;P1;durP1;ratioP1;P2;durP2;ratioP2
4353;SDS011;11018;51.258;6.806;2023-07-13T00:02:24;14.73;;;2.57;;
4353;SDS011;11018;51.258;6.806;2023-07-13T00:04:51;12.87;;;2.83;;
4353;SDS011;11018;51.258;6.806;2023-07-13T00:07:17;7.30;;;2.27;;
4353;SDS011;11018;51.258;6.806;2023-07-13T00:09:45;6.38;;;2.08;;
4353;SDS011;11018;51.258;6.806;2023-07-13T00:12:31;9.93;;;2.50;;
4353;SDS011;11018;51.258;6.806;2023-07-13T00:14:59;9.30;;;2.90;;
4353;SDS011;11018;51.258;6.806;2023-07-13T00:17:25;7.68;;;2.67;;
4353;SDS011;11018;51.258;6.806;2023-07-13T00:19:52;7.40;;;2.47;;
4353;SDS011;11018;51.258;6.806;2023-07-13T00:22:17;7.37;;;2.50;;
4353;SDS011;11018;51.258;6.806;2023-07-13T00:24:44;9.55;;;2.55;;
4353;SDS011;11018;51.258;6.806;2023-07-13T00:27:10;8.35;;;2.47;;
4353;SDS011;11018;51.258;6.806;2023-07-13T00:29:36;8.43;;;2.37;;
4353;SDS011;11018;51.258;6.806;2023-07-13T00:32:05;10.13;;;2.35;;
4353;SDS011;11018;51.258;6.806;2023-07-13T00:34:32;9.90;;;2.40;;
4353;SDS011;11018;51.258;6.806;2023-07-13T00:36:58;8.00;;;2.80;;
4353;SDS011;11018;51.258;6.806;2023-07-13T00:39:23;9.73;;;2.57;;
4353;SDS011;11018;51.258;6.806;2023-07-13T00:41:49;5.37;;;2.30;;
4353;SDS011;11018;51.258;6.806;2023-07-13T00:44:19;10.85;;;2.72;;
4353;SDS011;11018;51.258;6.806;2023-07-13T00:46:45;10.65;;;2.70;;
4353;SDS011;11018;51.258;6.806;2023-07-13T00:49:13;9.15;;;2.60;;
4353;SDS011;11018;51.258;6.806;2023-07-13T00:51:55;10.57;;;2.30;;
4353;SDS011;11018;51.258;6.806;2023-07-13T00:54:28;10.07;;;2.65;;
4353;SDS011;11018;51.258;6.806;2023-07-13T00:56:57;6.13;;;2.47;;
4353;SDS011;11018;51.258;6.806;2023-07-13T00:59:27;10.00;;;2.30;;
4353;SDS011;11018;51.258;6.806;2023-07-13T01:01:53;7.00;;;2.07;;
4353;SDS011;11018;51.258;6.806;2023-07-13T01:04:19;10.37;;;2.60;;
4353;SDS011;11018;51.258;6.806;2023-07-13T01:06:45;9.23;;;2.13;;
4353;SDS011;11018;51.258;6.806;2023-07-13T01:09:12;5.05;;;2.30;;
4353;SDS011;11018;51.258;6.806;2023-07-13T01:11:38;5.63;;;1.90;;
4353;SDS011;11018;51.258;6.806;2023-07-13T01:14:04;8.15;;;2.20;;
4353;SDS011;11018;51.258;6.806;2023-07-13T01:16:32;13.03;;;2.50;;
4353;SDS011;11018;51.258;6.806;2023-07-13T01:18:59;5.20;;;2.10;;
4353;SDS011;11018;51.258;6.806;2023-07-13T01:21:27;9.20;;;2.47;;
4353;SDS011;11018;51.258;6.806;2023-07-13T01:23:54;12.50;;;2.40;;
4353;SDS011;11018;51.258;6.806;2023-07-13T01:26:20;7.80;;;2.17;;
4353;SDS011;11018;51.258;6.806;2023-07-13T01:28:46;12.02;;;2.30;;
4353;SDS011;11018;51.258;6.806;2023-07-13T01:31:11;7.17;;;2.03;;
4353;SDS011;11018;51.258;6.806;2023-07-13T01:33:38;10.00;;;2.60;;
4353;SDS011;11018;51.258;6.806;2023-07-13T01:36:05;14.43;;;2.70;;
4353;SDS011;11018;51.258;6.806;2023-07-13T01:38:32;5.22;;;2.50;;
4353;SDS011;11018;51.258;6.806;2023-07-13T01:40:58;8.73;;;2.33;;
4353;SDS011;11018;51.258;6.806;2023-07-13T01:43:24;7.25;;;2.30;;
4353;SDS011;11018;51.258;6.806;2023-07-13T01:45:50;13.00;;;2.65;;
4353;SDS011;11018;51.258;6.806;2023-07-13T01:48:16;12.93;;;2.40;;
4353;SDS011;11018;51.258;6.806;2023-07-13T01:50:41;8.97;;;2.60;;
4353;SDS011;11018;51.258;6.806;2023-07-13T01:53:07;13.63;;;2.53;;
4353;SDS011;11018;51.258;6.806;2023-07-13T01:55:33;9.82;;;2.55;;
4353;SDS011;11018;51.258;6.806;2023-07-13T01:58:00;5.82;;;2.15;;
4353;SDS011;11018;51.258;6.806;2023-07-13T02:00:25;7.88;;;2.30;;
4353;SDS011;11018;51.258;6.806;2023-07-13T02:02:51;7.45;;;2.20;;
4353;SDS011;11018;51.258;6.806;2023-07-13T02:05:17;9.77;;;2.33;;
4353;SDS011;11018;51.258;6.806;2023-07-13T02:07:42;10.00;;;2.57;;
4353;SDS011;11018;51.258;6.806;2023-07-13T02:10:08;4.95;;;2.10;;
4353;SDS011;11018;51.258;6.806;2023-07-13T02:12:35;10.95;;;2.10;;
4353;SDS011;11018;51.258;6.806;2023-07-13T02:15:01;10.98;;;2.40;;
4353;SDS011;11018;51.258;6.806;2023-07-13T02:17:28;9.75;;;2.67;;
4353;SDS011;11018;51.258;6.806;2023-07-13T02:19:53;8.93;;;2.17;;
4353;SDS011;11018;51.258;6.806;2023-07-13T02:22:19;6.20;;;2.50;;
4353;SDS011;11018;51.258;6.806;2023-07-13T02:24:45;9.18;;;2.22;;
4353;SDS011;11018;51.258;6.806;2023-07-13T02:27:11;11.13;;;2.67;;
4353;SDS011;11018;51.258;6.806;2023-07-13T02:29:36;8.80;;;2.40;;
4353;SDS011;11018;51.258;6.806;2023-07-13T02:32:02;8.40;;;2.50;;
4353;SDS011;11018;51.258;6.806;2023-07-13T02:34:27;9.53;;;2.47;;
4353;SDS011;11018;51.258;6.806;2023-07-13T02:36:55;13.43;;;2.90;;
4353;SDS011;11018;51.258;6.806;2023-07-13T02:39:20;7.90;;;2.40;;
4353;SDS011;11018;51.258;6.806;2023-07-13T02:41:46;7.93;;;2.50;;
4353;SDS011;11018;51.258;6.806;2023-07-13T02:44:12;7.82;;;2.17;;
4353;SDS011;11018;51.258;6.806;2023-07-13T02:46:39;6.20;;;2.30;;
4353;SDS011;11018;51.258;6.806;2023-07-13T02:49:05;9.73;;;2.60;;
4353;SDS011;11018;51.258;6.806;2023-07-13T02:51:30;7.80;;;2.25;;
4353;SDS011;11018;51.258;6.806;2023-07-13T02:53:58;6.63;;;2.30;;
4353;SDS011;11018;51.258;6.806;2023-07-13T02:56:25;10.15;;;2.70;;
4353;SDS011;11018;51.258;6.806;2023-07-13T02:58:52;8.32;;;2.60;;
4353;SDS011;11018;51.258;6.806;2023-07-13T03:01:19;11.93;;;2.75;;
4353;SDS011;11018;51.258;6.806;2023-07-13T03:03:45;16.13;;;2.88;;
4353;SDS011;11018;51.258;6.806;2023-07-13T03:06:11;11.18;;;2.40;;
4353;SDS011;11018;51.258;6.806;2023-07-13T03:08:37;7.95;;;2.45;;
4353;SDS011;11018;51.258;6.806;2023-07-13T03:11:04;7.70;;;2.80;;
4353;SDS011;11018;51.258;6.806;2023-07-13T03:13:35;10.10;;;2.78;;
4353;SDS011;11018;51.258;6.806;2023-07-13T03:16:01;9.27;;;2.90;;
4353;SDS011;11018;51.258;6.806;2023-07-13T03:18:27;8.90;;;2.50;;
4353;SDS011;11018;51.258;6.806;2023-07-13T03:20:53;7.38;;;2.08;;
4353;SDS011;11018;51.258;6.806;2023-07-13T03:23:19;8.85;;;2.50;;
4353;SDS011;11018;51.258;6.806;2023-07-13T03:25:45;7.45;;;2.30;;
4353;SDS011;11018;51.258;6.806;2023-07-13T03:28:12;13.45;;;3.00;;
4353;SDS011;11018;51.258;6.806;2023-07-13T03:30:38;10.82;;;2.80;;
4353;SDS011;11018;51.258;6.806;2023-07-13T03:33:04;12.32;;;2.80;;
4353;SDS011;11018;51.258;6.806;2023-07-13T03:35:30;10.18;;;2.53;;
4353;SDS011;11018;51.258;6.806;2023-07-13T03:37:57;12.75;;;2.58;;
4353;SDS011;11018;51.258;6.806;2023-07-13T03:40:24;10.93;;;2.50;;
4353;SDS011;11018;51.258;6.806;2023-07-13T03:42:51;10.90;;;2.90;;
4353;SDS011;11018;51.258;6.806;2023-07-13T03:45:16;9.23;;;2.60;;
4353;SDS011;11018;51.258;6.806;2023-07-13T03:47:42;10.00;;;2.20;;
4353;SDS011;11018;51.258;6.806;2023-07-13T03:50:08;10.68;;;2.45;;
4353;SDS011;11018;51.258;6.806;2023-07-13T03:52:34;9.45;;;2.95;;
4353;SDS011;11018;51.258;6.806;2023-07-13T03:54:59;11.82;;;2.80;;
4353;SDS011;11018;51.258;6.806;2023-07-13T03:57:25;9.63;;;2.70;;
4353;SDS011;11018;51.258;6.806;2023-07-13T03:59:51;9.23;;;2.80;;
4353;SDS011;11018;51.258;6.806;2023-07-13T04:02:16;17.87;;;3.93;;
4353;SDS011;11018;51.258;6.806;2023-07-13T04:04:42;10.60;;;2.85;;
4353;SDS011;11018;51.258;6.806;2023-07-13T04:07:08;11.67;;;2.60;;
4353;SDS011;11018;51.258;6.806;2023-07-13T04:09:34;15.10;;;2.77;;
4353;SDS011;11018;51.258;6.806;2023-07-13T04:12:00;11.60;;;2.43;;
4353;SDS011;11018;51.258;6.806;2023-07-13T04:14:25;9.77;;;2.37;;
4353;SDS011;11018;51.258;6.806;2023-07-13T04:16:51;14.10;;;2.88;;
4353;SDS011;11018;51.258;6.806;2023-07-13T04:19:16;7.05;;;2.30;;
4353;SDS011;11018;51.258;6.806;2023-07-13T04:21:42;9.50;;;2.73;;
4353;SDS011;11018;51.258;6.806;2023-07-13T04:24:08;7.30;;;2.43;;
4353;SDS011;11018;51.258;6.806;2023-07-13T04:26:34;9.80;;;2.50;;
4353;SDS011;11018;51.258;6.806;2023-07-13T04:29:01;9.40;;;2.70;;
4353;SDS011;11018;51.258;6.806;2023-07-13T04:31:29;6.53;;;2.60;;
4353;SDS011;11018;51.258;6.806;2023-07-13T04:33:55;12.38;;;3.20;;
4353;SDS011;11018;51.258;6.806;2023-07-13T04:36:20;11.38;;;2.55;;
4353;SDS011;11018;51.258;6.806;2023-07-13T04:38:46;15.38;;;3.17;;
4353;SDS011;11018;51.258;6.806;2023-07-13T04:41:12;13.53;;;3.10;;
4353;SDS011;11018;51.258;6.806;2023-07-13T04:43:39;8.30;;;3.03;;
4353;SDS011;11018;51.258;6.806;2023-07-13T04:46:09;8.35;;;3.17;;
4353;SDS011;11018;51.258;6.806;2023-07-13T04:48:37;10.60;;;3.20;;
4353;SDS011;11018;51.258;6.806;2023-07-13T04:51:03;12.60;;;3.40;;
4353;SDS011;11018;51.258;6.806;2023-07-13T04:53:29;8.43;;;3.00;;
4353;SDS011;11018;51.258;6.806;2023-07-13T04:55:57;12.32;;;3.40;;
4353;SDS011;11018;51.258;6.806;2023-07-13T04:58:23;8.73;;;3.40;;
4353;SDS011;11018;51.258;6.806;2023-07-13T05:00:49;10.38;;;3.30;;
4353;SDS011;11018;51.258;6.806;2023-07-13T05:03:15;12.15;;;3.80;;
4353;SDS011;11018;51.258;6.806;2023-07-13T05:05:41;13.32;;;3.65;;
4353;SDS011;11018;51.258;6.806;2023-07-13T05:08:07;16.08;;;4.10;;
4353;SDS011;11018;51.258;6.806;2023-07-13T05:10:32;13.80;;;3.60;;
4353;SDS011;11018;51.258;6.806;2023-07-13T05:13:00;13.90;;;3.00;;
4353;SDS011;11018;51.258;6.806;2023-07-13T05:15:26;11.25;;;3.90;;
4353;SDS011;11018;51.258;6.806;2023-07-13T05:17:51;9.57;;;3.65;;
4353;SDS011;11018;51.258;6.806;2023-07-13T05:20:18;8.80;;;4.20;;
4353;SDS011;11018;51.258;6.806;2023-07-13T05:22:44;10.00;;;3.40;;
4353;SDS011;11018;51.258;6.806;2023-07-13T05:25:13;14.47;;;3.67;;
4353;SDS011;11018;51.258;6.806;2023-07-13T05:27:39;10.50;;;3.10;;
4353;SDS011;11018;51.258;6.806;2023-07-13T05:30:05;10.40;;;3.70;;
4353;SDS011;11018;51.258;6.806;2023-07-13T05:32:32;12.80;;;3.70;;
4353;SDS011;11018;51.258;6.806;2023-07-13T05:34:58;11.50;;;3.10;;
4353;SDS011;11018;51.258;6.806;2023-07-13T05:37:23;12.50;;;3.50;;
4353;SDS011;11018;51.258;6.806;2023-07-13T05:39:49;11.85;;;3.50;;
4353;SDS011;11018;51.258;6.806;2023-07-13T05:42:14;13.63;;;3.70;;
4353;SDS011;11018;51.258;6.806;2023-07-13T05:44:40;11.60;;;3.30;;
4353;SDS011;11018;51.258;6.806;2023-07-13T05:47:06;13.15;;;3.30;;
4353;SDS011;11018;51.258;6.806;2023-07-13T05:49:31;22.83;;;3.97;;
4353;SDS011;11018;51.258;6.806;2023-07-13T05:51:57;18.73;;;4.23;;
4353;SDS011;11018;51.258;6.806;2023-07-13T05:54:22;15.07;;;3.88;;
4353;SDS011;11018;51.258;6.806;2023-07-13T05:56:48;10.45;;;3.65;;
4353;SDS011;11018;51.258;6.806;2023-07-13T05:59:13;12.30;;;3.70;;
4353;SDS011;11018;51.258;6.806;2023-07-13T06:01:39;13.77;;;3.70;;
4353;SDS011;11018;51.258;6.806;2023-07-13T06:04:05;11.52;;;3.58;;
4353;SDS011;11018;51.258;6.806;2023-07-13T06:06:31;12.73;;;4.30;;
4353;SDS011;11018;51.258;6.806;2023-07-13T06:08:57;12.82;;;4.20;;
4353;SDS011;11018;51.258;6.806;2023-07-13T06:11:23;14.90;;;4.20;;
4353;SDS011;11018;51.258;6.806;2023-07-13T06:13:51;13.68;;;4.40;;
4353;SDS011;11018;51.258;6.806;2023-07-13T06:16:16;17.80;;;3.88;;
4353;SDS011;11018;51.258;6.806;2023-07-13T06:18:43;10.20;;;3.97;;
4353;SDS011;11018;51.258;6.806;2023-07-13T06:21:09;12.60;;;3.60;;
4353;SDS011;11018;51.258;6.806;2023-07-13T06:23:37;15.10;;;4.00;;
4353;SDS011;11018;51.258;6.806;2023-07-13T06:26:03;9.77;;;3.93;;
4353;SDS011;11018;51.258;6.806;2023-07-13T06:28:29;12.47;;;3.17;;
4353;SDS011;11018;51.258;6.806;2023-07-13T06:30:56;13.20;;;4.57;;
4353;SDS011;11018;51.258;6.806;2023-07-13T06:33:22;14.90;;;4.10;;
4353;SDS011;11018;51.258;6.806;2023-07-13T06:35:48;8.53;;;3.93;;
4353;SDS011;11018;51.258;6.806;2023-07-13T06:38:13;12.50;;;4.15;;
4353;SDS011;11018;51.258;6.806;2023-07-13T06:40:39;11.70;;;4.00;;
4353;SDS011;11018;51.258;6.806;2023-07-13T06:43:05;15.80;;;4.10;;
4353;SDS011;11018;51.258;6.806;2023-07-13T06:45:32;13.43;;;3.80;;
4353;SDS011;11018;51.258;6.806;2023-07-13T06:48:05;15.40;;;4.18;;
4353;SDS011;11018;51.258;6.806;2023-07-13T06:50:30;13.90;;;4.40;;
4353;SDS011;11018;51.258;6.806;2023-07-13T06:52:56;10.07;;;3.80;;
4353;SDS011;11018;51.258;6.806;2023-07-13T06:55:21;15.30;;;4.50;;
4353;SDS011;11018;51.258;6.806;2023-07-13T06:57:47;11.73;;;4.33;;
4353;SDS011;11018;51.258;6.806;2023-07-13T07:00:13;10.13;;;4.10;;
4353;SDS011;11018;51.258;6.806;2023-07-13T07:02:39;11.50;;;4.20;;
4353;SDS011;11018;51.258;6.806;2023-07-13T07:05:04;9.20;;;3.83;;
4353;SDS011;11018;51.258;6.806;2023-07-13T07:07:30;13.70;;;4.75;;
4353;SDS011;11018;51.258;6.806;2023-07-13T07:09:56;11.20;;;4.07;;
4353;SDS011;11018;51.258;6.806;2023-07-13T07:12:21;13.00;;;4.18;;
4353;SDS011;11018;51.258;6.806;2023-07-13T07:14:47;12.25;;;4.40;;
4353;SDS011;11018;51.258;6.806;2023-07-13T07:17:12;12.20;;;4.13;;
4353;SDS011;11018;51.258;6.806;2023-07-13T07:19:38;12.63;;;4.20;;
4353;SDS011;11018;51.258;6.806;2023-07-13T07:22:04;11.23;;;3.97;;
4353;SDS011;11018;51.258;6.806;2023-07-13T07:24:29;14.27;;;4.27;;
4353;SDS011;11018;51.258;6.806;2023-07-13T07:26:55;10.40;;;4.20;;
4353;SDS011;11018;51.258;6.806;2023-07-13T07:29:20;16.08;;;5.93;;
4353;SDS011;11018;51.258;6.806;2023-07-13T07:31:47;13.85;;;4.35;;
4353;SDS011;11018;51.258;6.806;2023-07-13T07:34:12;9.60;;;3.80;;
4353;SDS011;11018;51.258;6.806;2023-07-13T07:36:38;13.23;;;4.33;;
4353;SDS011;11018;51.258;6.806;2023-07-13T07:39:04;13.83;;;4.30;;
4353;SDS011;11018;51.258;6.806;2023-07-13T07:41:30;14.27;;;3.95;;
4353;SDS011;11018;51.258;6.806;2023-07-13T07:43:55;13.82;;;4.30;;
4353;SDS011;11018;51.258;6.806;2023-07-13T07:46:21;18.87;;;4.90;;
4353;SDS011;11018;51.258;6.806;2023-07-13T07:48:46;13.73;;;4.30;;
4353;SDS011;11018;51.258;6.806;2023-07-13T07:51:12;11.95;;;4.55;;
4353;SDS011;11018;51.258;6.806;2023-07-13T07:53:37;11.87;;;4.63;;
4353;SDS011;11018;51.258;6.806;2023-07-13T07:56:03;16.97;;;4.43;;
4353;SDS011;11018;51.258;6.806;2023-07-13T07:58:29;14.20;;;4.30;;
4353;SDS011;11018;51.258;6.806;2023-07-13T08:01:01;8.83;;;4.00;;
4353;SDS011;11018;51.258;6.806;2023-07-13T08:03:27;12.73;;;4.20;;
4353;SDS011;11018;51.258;6.806;2023-07-13T08:05:53;12.45;;;4.05;;
4353;SDS011;11018;51.258;6.806;2023-07-13T08:08:18;11.32;;;3.80;;
4353;SDS011;11018;51.258;6.806;2023-07-13T08:10:44;13.60;;;5.10;;
4353;SDS011;11018;51.258;6.806;2023-07-13T08:13:10;11.18;;;4.13;;
4353;SDS011;11018;51.258;6.806;2023-07-13T08:15:35;9.40;;;4.10;;
4353;SDS011;11018;51.258;6.806;2023-07-13T08:18:02;11.27;;;3.70;;
4353;SDS011;11018;51.258;6.806;2023-07-13T08:20:27;10.77;;;4.07;;
4353;SDS011;11018;51.258;6.806;2023-07-13T08:22:53;16.03;;;4.50;;
4353;SDS011;11018;51.258;6.806;2023-07-13T08:25:19;10.23;;;3.63;;
4353;SDS011;11018;51.258;6.806;2023-07-13T08:27:45;13.17;;;3.93;;
4353;SDS011;11018;51.258;6.806;2023-07-13T08:30:11;13.80;;;3.80;;
4353;SDS011;11018;51.258;6.806;2023-07-13T08:32:37;12.02;;;4.40;;
4353;SDS011;11018;51.258;6.806;2023-07-13T08:35:03;14.55;;;4.00;;
4353;SDS011;11018;51.258;6.806;2023-07-13T08:37:29;13.63;;;4.10;;
4353;SDS011;11018;51.258;6.806;2023-07-13T08:39:55;10.60;;;3.97;;
4353;SDS011;11018;51.258;6.806;2023-07-13T08:42:42;9.48;;;4.20;;
4353;SDS011;11018;51.258;6.806;2023-07-13T08:45:25;11.55;;;4.10;;
4353;SDS011;11018;51.258;6.806;2023-07-13T08:50:34;13.20;;;3.63;;
4353;SDS011;11018;51.258;6.806;2023-07-13T08:53:08;15.63;;;4.32;;
4353;SDS011;11018;51.258;6.806;2023-07-13T08:55:37;15.30;;;4.70;;
4353;SDS011;11018;51.258;6.806;2023-07-13T08:58:11;17.40;;;4.57;;
4353;SDS011;11018;51.258;6.806;2023-07-13T09:01:02;13.40;;;4.20;;
4353;SDS011;11018;51.258;6.806;2023-07-13T09:03:34;16.80;;;4.03;;
4353;SDS011;11018;51.258;6.806;2023-07-13T09:06:06;14.80;;;4.00;;
4353;SDS011;11018;51.258;6.806;2023-07-13T09:08:38;20.20;;;4.97;;
4353;SDS011;11018;51.258;6.806;2023-07-13T09:11:17;18.50;;;5.00;;
4353;SDS011;11018;51.258;6.806;2023-07-13T09:16:45;13.97;;;4.40;;
4353;SDS011;11018;51.258;6.806;2023-07-13T09:19:16;15.05;;;4.43;;
4353;SDS011;11018;51.258;6.806;2023-07-13T09:21:48;15.10;;;4.70;;
4353;SDS011;11018;51.258;6.806;2023-07-13T09:27:27;15.75;;;4.20;;
4353;SDS011;11018;51.258;6.806;2023-07-13T09:30:01;10.52;;;4.00;;
4353;SDS011;11018;51.258;6.806;2023-07-13T09:32:36;17.25;;;4.40;;
4353;SDS011;11018;51.258;6.806;2023-07-13T09:35:09;13.90;;;4.28;;
4353;SDS011;11018;51.258;6.806;2023-07-13T09:37:36;17.83;;;4.40;;
4353;SDS011;11018;51.258;6.806;2023-07-13T09:40:03;17.05;;;4.38;;
4353;SDS011;11018;51.258;6.806;2023-07-13T09:42:30;14.40;;;3.70;;
4353;SDS011;11018;51.258;6.806;2023-07-13T09:44:59;7.47;;;3.30;;
4353;SDS011;11018;51.258;6.806;2023-07-13T09:47:32;12.98;;;3.70;;
4353;SDS011;11018;51.258;6.806;2023-07-13T09:50:03;11.48;;;3.85;;
4353;SDS011;11018;51.258;6.806;2023-07-13T09:52:42;10.75;;;3.55;;
4353;SDS011;11018;51.258;6.806;2023-07-13T09:55:52;10.13;;;3.53;;
4353;SDS011;11018;51.258;6.806;2023-07-13T10:00:42;7.80;;;3.23;;
4353;SDS011;11018;51.258;6.806;2023-07-13T10:03:19;9.80;;;3.50;;
4353;SDS011;11018;51.258;6.806;2023-07-13T10:05:50;11.23;;;3.60;;
4353;SDS011;11018;51.258;6.806;2023-07-13T10:08:21;7.95;;;3.20;;
4353;SDS011;11018;51.258;6.806;2023-07-13T10:11:34;10.95;;;3.50;;
4353;SDS011;11018;51.258;6.806;2023-07-13T10:16:20;9.25;;;3.22;;
4353;SDS011;11018;51.258;6.806;2023-07-13T10:18:55;9.55;;;3.50;;
4353;SDS011;11018;51.258;6.806;2023-07-13T10:21:35;8.82;;;3.15;;
4353;SDS011;11018;51.258;6.806;2023-07-13T10:24:21;11.37;;;3.03;;
4353;SDS011;11018;51.258;6.806;2023-07-13T10:26:52;8.63;;;3.22;;
4353;SDS011;11018;51.258;6.806;2023-07-13T10:29:43;11.77;;;3.40;;
4353;SDS011;11018;51.258;6.806;2023-07-13T10:32:21;11.57;;;3.00;;
4353;SDS011;11018;51.258;6.806;2023-07-13T10:34:49;9.48;;;3.15;;
4353;SDS011;11018;51.258;6.806;2023-07-13T10:37:19;7.45;;;2.55;;
4353;SDS011;11018;51.258;6.806;2023-07-13T10:40:02;7.32;;;2.75;;
4353;SDS011;11018;51.258;6.806;2023-07-13T10:42:34;11.57;;;3.45;;
4353;SDS011;11018;51.258;6.806;2023-07-13T10:45:11;9.60;;;2.65;;
4353;SDS011;11018;51.258;6.806;2023-07-13T10:47:39;9.17;;;3.40;;
4353;SDS011;11018;51.258;6.806;2023-07-13T10:50:05;11.15;;;3.20;;
4353;SDS011;11018;51.258;6.806;2023-07-13T10:52:40;7.40;;;2.80;;
4353;SDS011;11018;51.258;6.806;2023-07-13T10:55:29;14.37;;;3.30;;
4353;SDS011;11018;51.258;6.806;2023-07-13T10:58:03;12.15;;;3.30;;
4353;SDS011;11018;51.258;6.806;2023-07-13T11:00:51;7.50;;;2.90;;
4353;SDS011;11018;51.258;6.806;2023-07-13T11:03:30;11.07;;;3.57;;
4353;SDS011;11018;51.258;6.806;2023-07-13T11:06:08;13.15;;;3.40;;
4353;SDS011;11018;51.258;6.806;2023-07-13T11:19:08;9.43;;;2.85;;
4353;SDS011;11018;51.258;6.806;2023-07-13T11:24:49;8.73;;;3.00;;
4353;SDS011;11018;51.258;6.806;2023-07-13T11:27:23;8.10;;;2.80;;
4353;SDS011;11018;51.258;6.806;2023-07-13T11:30:07;9.70;;;2.78;;
4353;SDS011;11018;51.258;6.806;2023-07-13T11:32:43;7.20;;;2.50;;
4353;SDS011;11018;51.258;6.806;2023-07-13T11:35:12;6.77;;;2.80;;
4353;SDS011;11018;51.258;6.806;2023-07-13T11:37:42;8.73;;;2.70;;
4353;SDS011;11018;51.258;6.806;2023-07-13T11:40:12;7.55;;;2.53;;
4353;SDS011;11018;51.258;6.806;2023-07-13T11:42:39;6.72;;;2.65;;
4353;SDS011;11018;51.258;6.806;2023-07-13T11:45:14;8.23;;;2.90;;
4353;SDS011;11018;51.258;6.806;2023-07-13T11:47:48;4.82;;;2.42;;
4353;SDS011;11018;51.258;6.806;2023-07-13T11:50:22;9.15;;;3.17;;
4353;SDS011;11018;51.258;6.806;2023-07-13T11:52:49;9.63;;;3.40;;
4353;SDS011;11018;51.258;6.806;2023-07-13T11:55:19;9.85;;;2.90;;
4353;SDS011;11018;51.258;6.806;2023-07-13T11:58:05;13.07;;;3.20;;
4353;SDS011;11018;51.258;6.806;2023-07-13T12:00:34;7.57;;;3.55;;
4353;SDS011;11018;51.258;6.806;2023-07-13T12:03:01;6.55;;;2.50;;
4353;SDS011;11018;51.258;6.806;2023-07-13T12:05:29;10.77;;;3.20;;
4353;SDS011;11018;51.258;6.806;2023-07-13T12:07:57;11.05;;;3.20;;
4353;SDS011;11018;51.258;6.806;2023-07-13T12:10:24;9.00;;;2.50;;
4353;SDS011;11018;51.258;6.806;2023-07-13T12:12:56;7.68;;;2.65;;
4353;SDS011;11018;51.258;6.806;2023-07-13T12:15:23;7.40;;;2.40;;
4353;SDS011;11018;51.258;6.806;2023-07-13T12:17:55;9.77;;;2.58;;
4353;SDS011;11018;51.258;6.806;2023-07-13T12:20:25;7.80;;;2.80;;
4353;SDS011;11018;51.258;6.806;2023-07-13T12:22:52;6.07;;;2.47;;
4353;SDS011;11018;51.258;6.806;2023-07-13T12:25:18;6.35;;;2.20;;
4353;SDS011;11018;51.258;6.806;2023-07-13T12:27:48;9.13;;;2.40;;
4353;SDS011;11018;51.258;6.806;2023-07-13T12:30:22;8.90;;;2.40;;
4353;SDS011;11018;51.258;6.806;2023-07-13T12:32:56;6.40;;;2.40;;
4353;SDS011;11018;51.258;6.806;2023-07-13T12:35:25;9.05;;;2.45;;
4353;SDS011;11018;51.258;6.806;2023-07-13T12:37:54;5.88;;;2.22;;
4353;SDS011;11018;51.258;6.806;2023-07-13T12:40:24;5.88;;;2.08;;
4353;SDS011;11018;51.258;6.806;2023-07-13T12:43:01;5.40;;;2.10;;
4353;SDS011;11018;51.258;6.806;2023-07-13T12:45:29;7.93;;;2.20;;
4353;SDS011;11018;51.258;6.806;2023-07-13T12:47:59;2.85;;;1.80;;
4353;SDS011;11018;51.258;6.806;2023-07-13T12:50:39;7.05;;;2.17;;
4353;SDS011;11018;51.258;6.806;2023-07-13T12:53:06;6.78;;;2.35;;
4353;SDS011;11018;51.258;6.806;2023-07-13T12:55:42;5.97;;;2.23;;
4353;SDS011;11018;51.258;6.806;2023-07-13T12:58:25;5.10;;;1.70;;
4353;SDS011;11018;51.258;6.806;2023-07-13T13:00:59;4.78;;;2.25;;
4353;SDS011;11018;51.258;6.806;2023-07-13T13:06:04;3.47;;;1.92;;
4353;SDS011;11018;51.258;6.806;2023-07-13T13:08:52;8.43;;;2.20;;
4353;SDS011;11018;51.258;6.806;2023-07-13T13:11:23;4.13;;;2.05;;
4353;SDS011;11018;51.258;6.806;2023-07-13T13:13:50;6.10;;;2.17;;
4353;SDS011;11018;51.258;6.806;2023-07-13T13:16:19;4.40;;;2.20;;
4353;SDS011;11018;51.258;6.806;2023-07-13T13:18:44;7.72;;;2.25;;
4353;SDS011;11018;51.258;6.806;2023-07-13T13:21:10;4.10;;;1.95;;
4353;SDS011;11018;51.258;6.806;2023-07-13T13:23:36;7.47;;;2.20;;
4353;SDS011;11018;51.258;6.806;2023-07-13T13:26:02;4.60;;;2.10;;
4353;SDS011;11018;51.258;6.806;2023-07-13T13:28:31;4.68;;;2.20;;
4353;SDS011;11018;51.258;6.806;2023-07-13T13:30:57;5.85;;;2.42;;
4353;SDS011;11018;51.258;6.806;2023-07-13T13:33:23;7.43;;;2.30;;
4353;SDS011;11018;51.258;6.806;2023-07-13T13:35:48;4.57;;;1.92;;
4353;SDS011;11018;51.258;6.806;2023-07-13T13:38:19;4.88;;;2.00;;
4353;SDS011;11018;51.258;6.806;2023-07-13T13:40:48;4.28;;;2.00;;
4353;SDS011;11018;51.258;6.806;2023-07-13T13:43:15;8.43;;;2.30;;
4353;SDS011;11018;51.258;6.806;2023-07-13T13:45:46;6.33;;;2.03;;
4353;SDS011;11018;51.258;6.806;2023-07-13T13:48:19;5.90;;;2.23;;
4353;SDS011;11018;51.258;6.806;2023-07-13T13:50:47;4.20;;;1.80;;
4353;SDS011;11018;51.258;6.806;2023-07-13T13:53:13;7.38;;;2.50;;
4353;SDS011;11018;51.258;6.806;2023-07-13T13:55:39;5.78;;;2.20;;
4353;SDS011;11018;51.258;6.806;2023-07-13T13:58:06;3.07;;;2.00;;
4353;SDS011;11018;51.258;6.806;2023-07-13T14:00:37;5.90;;;1.73;;
4353;SDS011;11018;51.258;6.806;2023-07-13T14:03:03;4.00;;;1.80;;
4353;SDS011;11018;51.258;6.806;2023-07-13T14:05:30;3.40;;;1.97;;
4353;SDS011;11018;51.258;6.806;2023-07-13T14:07:56;5.40;;;2.10;;
4353;SDS011;11018;51.258;6.806;2023-07-13T14:10:22;2.83;;;1.80;;
4353;SDS011;11018;51.258;6.806;2023-07-13T14:12:50;5.13;;;2.10;;
4353;SDS011;11018;51.258;6.806;2023-07-13T14:15:20;5.35;;;2.05;;
4353;SDS011;11018;51.258;6.806;2023-07-13T14:17:48;7.47;;;1.90;;
4353;SDS011;11018;51.258;6.806;2023-07-13T14:20:15;4.60;;;1.90;;
4353;SDS011;11018;51.258;6.806;2023-07-13T14:22:41;5.00;;;1.90;;
4353;SDS011;11018;51.258;6.806;2023-07-13T14:25:13;3.80;;;1.92;;
4353;SDS011;11018;51.258;6.806;2023-07-13T14:27:40;3.92;;;1.80;;
4353;SDS011;11018;51.258;6.806;2023-07-13T14:30:20;8.35;;;2.15;;
4353;SDS011;11018;51.258;6.806;2023-07-13T14:32:47;6.33;;;2.47;;
4353;SDS011;11018;51.258;6.806;2023-07-13T14:35:14;7.13;;;2.53;;
4353;SDS011;11018;51.258;6.806;2023-07-13T14:37:41;5.78;;;2.30;;
4353;SDS011;11018;51.258;6.806;2023-07-13T14:40:19;6.60;;;2.10;;
4353;SDS011;11018;51.258;6.806;2023-07-13T14:42:51;8.75;;;2.03;;
4353;SDS011;11018;51.258;6.806;2023-07-13T14:45:17;9.23;;;2.10;;
4353;SDS011;11018;51.258;6.806;2023-07-13T14:47:45;8.00;;;2.60;;
4353;SDS011;11018;51.258;6.806;2023-07-13T14:50:15;7.43;;;2.60;;
4353;SDS011;11018;51.258;6.806;2023-07-13T14:52:43;7.20;;;2.10;;
4353;SDS011;11018;51.258;6.806;2023-07-13T14:55:10;7.68;;;2.40;;
4353;SDS011;11018;51.258;6.806;2023-07-13T14:57:37;4.90;;;2.80;;
4353;SDS011;11018;51.258;6.806;2023-07-13T15:00:03;7.97;;;2.25;;
4353;SDS011;11018;51.258;6.806;2023-07-13T15:02:34;6.07;;;2.70;;
4353;SDS011;11018;51.258;6.806;2023-07-13T15:05:05;6.30;;;2.70;;
4353;SDS011;11018;51.258;6.806;2023-07-13T15:07:42;5.10;;;2.60;;
4353;SDS011;11018;51.258;6.806;2023-07-13T15:10:15;11.25;;;2.85;;
4353;SDS011;11018;51.258;6.806;2023-07-13T15:12:43;9.85;;;3.00;;
4353;SDS011;11018;51.258;6.806;2023-07-13T15:15:08;6.75;;;2.60;;
4353;SDS011;11018;51.258;6.806;2023-07-13T15:17:35;5.47;;;2.38;;
4353;SDS011;11018;51.258;6.806;2023-07-13T15:20:15;4.82;;;2.30;;
4353;SDS011;11018;51.258;6.806;2023-07-13T15:22:48;4.22;;;2.55;;
4353;SDS011;11018;51.258;6.806;2023-07-13T15:25:16;8.23;;;2.22;;
4353;SDS011;11018;51.258;6.806;2023-07-13T15:27:52;9.23;;;2.80;;
4353;SDS011;11018;51.258;6.806;2023-07-13T15:30:19;8.45;;;2.47;;
4353;SDS011;11018;51.258;6.806;2023-07-13T15:32:45;3.42;;;2.20;;
4353;SDS011;11018;51.258;6.806;2023-07-13T15:35:15;7.00;;;2.50;;